sensor_id;sensor_type;location;lat;lon;timestamp;temperature;humidity
21035;DHT22;10676;50.848;3.272;2022-11-21T00:00:46;6.50;99.90
21035;DHT22;10676;50.848;3.272;2022-11-21T00:03:11;6.40;99.90
21035;DHT22;10676;50.848;3.272;2022-11-21T00:05:43;6.40;99.90
21035;DHT22;10676;50.848;3.272;2022-11-21T00:08:10;6.50;99.90
21035;DHT22;10676;50.848;3.272;2022-11-21T00:10:37;6.40;99.90
21035;DHT22;10676;50.848;3.272;2022-11-21T00:13:03;6.30;99.90
21035;DHT22;10676;50.848;3.272;2022-11-21T00:15:29;6.30;99.90
21035;DHT22;10676;50.848;3.272;2022-11-21T00:17:54;6.40;99.90
21035;DHT22;10676;50.848;3.272;2022-11-21T00:20:21;6.30;99.90
21035;DHT22;10676;50.848;3.272;2022-11-21T00:22:48;6.30;99.90
21035;DHT22;10676;50.848;3.272;2022-11-21T00:25:14;6.30;99.90
21035;DHT22;10676;50.848;3.272;2022-11-21T00:27:39;6.30;99.90
21035;DHT22;10676;50.848;3.272;2022-11-21T00:30:07;6.40;99.90
21035;DHT22;10676;50.848;3.272;2022-11-21T00:32:33;6.40;99.90
21035;DHT22;10676;50.848;3.272;2022-11-21T00:34:59;6.40;99.90
21035;DHT22;10676;50.848;3.272;2022-11-21T00:37:25;6.50;99.90
21035;DHT22;10676;50.848;3.272;2022-11-21T00:39:50;6.40;99.90
21035;DHT22;10676;50.848;3.272;2022-11-21T00:42:16;6.30;99.90
21035;DHT22;10676;50.848;3.272;2022-11-21T00:44:42;6.30;99.90
21035;DHT22;10676;50.848;3.272;2022-11-21T00:47:07;6.30;99.90
21035;DHT22;10676;50.848;3.272;2022-11-21T00:49:33;6.30;99.90
21035;DHT22;10676;50.848;3.272;2022-11-21T00:51:58;6.30;99.90
21035;DHT22;10676;50.848;3.272;2022-11-21T00:54:24;6.20;99.90
21035;DHT22;10676;50.848;3.272;2022-11-21T00:56:50;6.20;99.90
21035;DHT22;10676;50.848;3.272;2022-11-21T00:59:15;6.10;99.90
21035;DHT22;10676;50.848;3.272;2022-11-21T01:01:41;6.10;99.90
21035;DHT22;10676;50.848;3.272;2022-11-21T01:04:07;6.00;99.90
21035;DHT22;10676;50.848;3.272;2022-11-21T01:06:32;5.90;99.90
21035;DHT22;10676;50.848;3.272;2022-11-21T01:08:58;5.80;99.90
21035;DHT22;10676;50.848;3.272;2022-11-21T01:11:24;5.70;99.90
21035;DHT22;10676;50.848;3.272;2022-11-21T01:13:52;5.50;99.90
21035;DHT22;10676;50.848;3.272;2022-11-21T01:16:21;5.40;99.90
21035;DHT22;10676;50.848;3.272;2022-11-21T01:18:47;5.30;99.90
21035;DHT22;10676;50.848;3.272;2022-11-21T01:21:21;5.30;99.90
21035;DHT22;10676;50.848;3.272;2022-11-21T01:23:48;5.20;99.90
21035;DHT22;10676;50.848;3.272;2022-11-21T01:26:20;5.20;99.90
21035;DHT22;10676;50.848;3.272;2022-11-21T01:28:47;5.30;99.90
21035;DHT22;10676;50.848;3.272;2022-11-21T01:31:21;5.20;99.90
21035;DHT22;10676;50.848;3.272;2022-11-21T01:33:46;5.20;99.90
21035;DHT22;10676;50.848;3.272;2022-11-21T01:36:24;5.30;99.90
21035;DHT22;10676;50.848;3.272;2022-11-21T01:38:52;5.30;99.90
21035;DHT22;10676;50.848;3.272;2022-11-21T01:41:24;5.30;99.90
21035;DHT22;10676;50.848;3.272;2022-11-21T01:43:50;5.40;99.90
21035;DHT22;10676;50.848;3.272;2022-11-21T01:46:16;5.40;99.90
21035;DHT22;10676;50.848;3.272;2022-11-21T01:51:30;5.50;99.90
21035;DHT22;10676;50.848;3.272;2022-11-21T01:54:06;5.60;99.90
21035;DHT22;10676;50.848;3.272;2022-11-21T01:56:40;5.60;99.90
21035;DHT22;10676;50.848;3.272;2022-11-21T01:59:08;5.60;99.90
21035;DHT22;10676;50.848;3.272;2022-11-21T02:01:36;5.60;99.90
21035;DHT22;10676;50.848;3.272;2022-11-21T02:04:02;5.60;99.90
21035;DHT22;10676;50.848;3.272;2022-11-21T02:06:31;5.60;99.90
21035;DHT22;10676;50.848;3.272;2022-11-21T02:08:59;5.60;99.90
21035;DHT22;10676;50.848;3.272;2022-11-21T02:11:31;5.50;99.90
21035;DHT22;10676;50.848;3.272;2022-11-21T02:14:00;5.60;99.90
21035;DHT22;10676;50.848;3.272;2022-11-21T02:16:26;5.60;99.90
21035;DHT22;10676;50.848;3.272;2022-11-21T02:18:52;5.50;99.90
21035;DHT22;10676;50.848;3.272;2022-11-21T02:21:39;5.50;99.90
21035;DHT22;10676;50.848;3.272;2022-11-21T02:24:29;5.40;99.90
21035;DHT22;10676;50.848;3.272;2022-11-21T02:26:58;5.30;99.90
21035;DHT22;10676;50.848;3.272;2022-11-21T02:29:25;5.30;99.90
21035;DHT22;10676;50.848;3.272;2022-11-21T02:31:51;5.20;99.90
21035;DHT22;10676;50.848;3.272;2022-11-21T02:34:18;5.10;99.90
21035;DHT22;10676;50.848;3.272;2022-11-21T02:36:46;5.00;99.90
21035;DHT22;10676;50.848;3.272;2022-11-21T02:39:39;5.00;99.90
21035;DHT22;10676;50.848;3.272;2022-11-21T02:42:30;5.00;99.90
21035;DHT22;10676;50.848;3.272;2022-11-21T02:47:42;4.90;99.90
21035;DHT22;10676;50.848;3.272;2022-11-21T02:50:13;4.80;99.90
21035;DHT22;10676;50.848;3.272;2022-11-21T02:52:39;4.80;99.90
21035;DHT22;10676;50.848;3.272;2022-11-21T02:55:06;4.80;99.90
21035;DHT22;10676;50.848;3.272;2022-11-21T02:57:31;4.70;99.90
21035;DHT22;10676;50.848;3.272;2022-11-21T02:59:57;4.70;99.90
21035;DHT22;10676;50.848;3.272;2022-11-21T03:02:23;4.70;99.90
21035;DHT22;10676;50.848;3.272;2022-11-21T03:04:49;4.70;99.90
21035;DHT22;10676;50.848;3.272;2022-11-21T03:07:15;4.70;99.90
21035;DHT22;10676;50.848;3.272;2022-11-21T03:09:40;4.60;99.90
21035;DHT22;10676;50.848;3.272;2022-11-21T03:12:07;4.80;99.90
21035;DHT22;10676;50.848;3.272;2022-11-21T03:14:34;4.60;99.90
21035;DHT22;10676;50.848;3.272;2022-11-21T03:17:00;4.50;99.90
21035;DHT22;10676;50.848;3.272;2022-11-21T03:19:26;4.50;99.90
21035;DHT22;10676;50.848;3.272;2022-11-21T03:21:51;4.50;99.90
21035;DHT22;10676;50.848;3.272;2022-11-21T03:24:17;4.50;99.90
21035;DHT22;10676;50.848;3.272;2022-11-21T03:26:42;4.50;99.90
21035;DHT22;10676;50.848;3.272;2022-11-21T03:29:08;4.60;99.90
21035;DHT22;10676;50.848;3.272;2022-11-21T03:31:34;4.50;99.90
21035;DHT22;10676;50.848;3.272;2022-11-21T03:34:00;4.50;99.90
21035;DHT22;10676;50.848;3.272;2022-11-21T03:36:25;4.60;99.90
21035;DHT22;10676;50.848;3.272;2022-11-21T03:38:51;4.60;99.90
21035;DHT22;10676;50.848;3.272;2022-11-21T03:41:17;4.70;99.90
21035;DHT22;10676;50.848;3.272;2022-11-21T03:43:56;4.70;99.90
21035;DHT22;10676;50.848;3.272;2022-11-21T03:46:22;4.70;99.90
21035;DHT22;10676;50.848;3.272;2022-11-21T03:48:47;4.80;99.90
21035;DHT22;10676;50.848;3.272;2022-11-21T03:51:13;4.80;99.90
21035;DHT22;10676;50.848;3.272;2022-11-21T03:53:39;4.80;99.90
21035;DHT22;10676;50.848;3.272;2022-11-21T03:56:04;4.80;99.90
21035;DHT22;10676;50.848;3.272;2022-11-21T03:58:30;4.80;99.90
21035;DHT22;10676;50.848;3.272;2022-11-21T04:00:56;4.70;99.90
21035;DHT22;10676;50.848;3.272;2022-11-21T04:03:21;4.70;99.90
21035;DHT22;10676;50.848;3.272;2022-11-21T04:05:47;4.70;99.90
21035;DHT22;10676;50.848;3.272;2022-11-21T04:08:12;4.60;99.90
21035;DHT22;10676;50.848;3.272;2022-11-21T04:10:38;4.60;99.90
21035;DHT22;10676;50.848;3.272;2022-11-21T04:13:04;4.70;99.90
21035;DHT22;10676;50.848;3.272;2022-11-21T04:15:29;4.60;99.90
21035;DHT22;10676;50.848;3.272;2022-11-21T04:17:55;4.60;99.90
21035;DHT22;10676;50.848;3.272;2022-11-21T04:20:20;4.60;99.90
21035;DHT22;10676;50.848;3.272;2022-11-21T04:22:46;4.50;99.90
21035;DHT22;10676;50.848;3.272;2022-11-21T04:25:11;4.50;99.90
21035;DHT22;10676;50.848;3.272;2022-11-21T04:27:38;4.40;99.90
21035;DHT22;10676;50.848;3.272;2022-11-21T04:30:05;4.40;99.90
21035;DHT22;10676;50.848;3.272;2022-11-21T04:32:30;4.40;99.90
21035;DHT22;10676;50.848;3.272;2022-11-21T04:34:56;4.30;99.90
21035;DHT22;10676;50.848;3.272;2022-11-21T04:37:21;4.30;99.90
21035;DHT22;10676;50.848;3.272;2022-11-21T04:39:47;4.30;99.90
21035;DHT22;10676;50.848;3.272;2022-11-21T04:42:13;4.30;99.90
21035;DHT22;10676;50.848;3.272;2022-11-21T04:44:38;4.30;99.90
21035;DHT22;10676;50.848;3.272;2022-11-21T04:47:04;4.20;99.90
21035;DHT22;10676;50.848;3.272;2022-11-21T04:49:30;4.20;99.90
21035;DHT22;10676;50.848;3.272;2022-11-21T04:51:55;4.30;99.90
21035;DHT22;10676;50.848;3.272;2022-11-21T04:54:21;4.30;99.90
21035;DHT22;10676;50.848;3.272;2022-11-21T04:56:46;4.30;99.90
21035;DHT22;10676;50.848;3.272;2022-11-21T04:59:12;4.20;99.90
21035;DHT22;10676;50.848;3.272;2022-11-21T05:01:37;4.20;99.90
21035;DHT22;10676;50.848;3.272;2022-11-21T05:04:03;4.20;99.90
21035;DHT22;10676;50.848;3.272;2022-11-21T05:06:29;4.10;99.90
21035;DHT22;10676;50.848;3.272;2022-11-21T05:08:54;4.00;99.90
21035;DHT22;10676;50.848;3.272;2022-11-21T05:11:20;3.90;99.90
21035;DHT22;10676;50.848;3.272;2022-11-21T05:14:05;4.00;99.90
21035;DHT22;10676;50.848;3.272;2022-11-21T05:16:33;3.90;99.90
21035;DHT22;10676;50.848;3.272;2022-11-21T05:18:59;3.80;99.90
21035;DHT22;10676;50.848;3.272;2022-11-21T05:21:25;3.80;99.90
21035;DHT22;10676;50.848;3.272;2022-11-21T05:23:50;3.80;99.90
21035;DHT22;10676;50.848;3.272;2022-11-21T05:26:16;3.70;99.90
21035;DHT22;10676;50.848;3.272;2022-11-21T05:28:42;3.70;99.90
21035;DHT22;10676;50.848;3.272;2022-11-21T05:31:07;3.60;99.90
21035;DHT22;10676;50.848;3.272;2022-11-21T05:33:33;3.60;99.90
21035;DHT22;10676;50.848;3.272;2022-11-21T05:35:58;3.50;99.90
21035;DHT22;10676;50.848;3.272;2022-11-21T05:38:24;3.50;99.90
21035;DHT22;10676;50.848;3.272;2022-11-21T05:40:53;3.40;99.90
21035;DHT22;10676;50.848;3.272;2022-11-21T05:43:18;3.40;99.90
21035;DHT22;10676;50.848;3.272;2022-11-21T05:46:02;3.30;99.90
21035;DHT22;10676;50.848;3.272;2022-11-21T05:48:28;3.30;99.90
21035;DHT22;10676;50.848;3.272;2022-11-21T05:50:54;3.20;99.90
21035;DHT22;10676;50.848;3.272;2022-11-21T05:53:19;3.10;99.90
21035;DHT22;10676;50.848;3.272;2022-11-21T05:55:45;3.10;99.90
21035;DHT22;10676;50.848;3.272;2022-11-21T05:58:11;3.00;99.90
21035;DHT22;10676;50.848;3.272;2022-11-21T06:00:37;3.00;99.90
21035;DHT22;10676;50.848;3.272;2022-11-21T06:03:04;3.00;99.90
21035;DHT22;10676;50.848;3.272;2022-11-21T06:05:48;2.90;99.90
21035;DHT22;10676;50.848;3.272;2022-11-21T06:08:14;2.90;99.90
21035;DHT22;10676;50.848;3.272;2022-11-21T06:10:39;2.90;99.90
21035;DHT22;10676;50.848;3.272;2022-11-21T06:13:05;2.90;99.90
21035;DHT22;10676;50.848;3.272;2022-11-21T06:15:50;2.80;99.90
21035;DHT22;10676;50.848;3.272;2022-11-21T06:18:16;2.80;99.90
21035;DHT22;10676;50.848;3.272;2022-11-21T06:20:43;2.70;99.90
21035;DHT22;10676;50.848;3.272;2022-11-21T06:23:08;2.60;99.90
21035;DHT22;10676;50.848;3.272;2022-11-21T06:25:34;2.50;99.90
21035;DHT22;10676;50.848;3.272;2022-11-21T06:27:59;2.50;99.90
21035;DHT22;10676;50.848;3.272;2022-11-21T06:30:25;2.40;99.90
21035;DHT22;10676;50.848;3.272;2022-11-21T06:32:51;2.40;99.90
21035;DHT22;10676;50.848;3.272;2022-11-21T06:35:16;2.30;99.90
21035;DHT22;10676;50.848;3.272;2022-11-21T06:37:43;2.40;99.90
21035;DHT22;10676;50.848;3.272;2022-11-21T06:40:09;2.30;99.90
21035;DHT22;10676;50.848;3.272;2022-11-21T06:42:35;2.30;99.90
21035;DHT22;10676;50.848;3.272;2022-11-21T06:45:00;2.30;99.90
21035;DHT22;10676;50.848;3.272;2022-11-21T06:47:26;2.30;99.90
21035;DHT22;10676;50.848;3.272;2022-11-21T06:49:52;2.30;99.90
21035;DHT22;10676;50.848;3.272;2022-11-21T06:52:17;2.30;99.90
21035;DHT22;10676;50.848;3.272;2022-11-21T06:54:44;2.30;99.90
21035;DHT22;10676;50.848;3.272;2022-11-21T06:57:10;2.30;99.90
21035;DHT22;10676;50.848;3.272;2022-11-21T06:59:35;2.30;99.90
21035;DHT22;10676;50.848;3.272;2022-11-21T07:02:01;2.30;99.90
21035;DHT22;10676;50.848;3.272;2022-11-21T07:04:26;2.30;99.90
21035;DHT22;10676;50.848;3.272;2022-11-21T07:06:52;2.40;99.90
21035;DHT22;10676;50.848;3.272;2022-11-21T07:09:18;2.50;99.90
21035;DHT22;10676;50.848;3.272;2022-11-21T07:11:43;2.50;99.90
21035;DHT22;10676;50.848;3.272;2022-11-21T07:14:09;2.60;99.90
21035;DHT22;10676;50.848;3.272;2022-11-21T07:16:35;2.60;99.90
21035;DHT22;10676;50.848;3.272;2022-11-21T07:19:00;2.70;99.90
21035;DHT22;10676;50.848;3.272;2022-11-21T07:21:26;2.80;99.90
21035;DHT22;10676;50.848;3.272;2022-11-21T07:23:51;2.90;99.90
21035;DHT22;10676;50.848;3.272;2022-11-21T07:26:17;2.90;99.90
21035;DHT22;10676;50.848;3.272;2022-11-21T07:28:43;3.00;99.90
21035;DHT22;10676;50.848;3.272;2022-11-21T07:31:09;3.10;99.90
21035;DHT22;10676;50.848;3.272;2022-11-21T07:33:35;3.20;99.90
21035;DHT22;10676;50.848;3.272;2022-11-21T07:36:02;3.40;99.90
21035;DHT22;10676;50.848;3.272;2022-11-21T07:38:27;3.60;99.90
21035;DHT22;10676;50.848;3.272;2022-11-21T07:40:55;3.80;99.90
21035;DHT22;10676;50.848;3.272;2022-11-21T07:43:21;3.90;99.90
21035;DHT22;10676;50.848;3.272;2022-11-21T07:45:47;4.10;99.90
21035;DHT22;10676;50.848;3.272;2022-11-21T07:48:12;4.20;99.90
21035;DHT22;10676;50.848;3.272;2022-11-21T07:50:38;4.30;99.90
21035;DHT22;10676;50.848;3.272;2022-11-21T07:53:08;4.50;99.90
21035;DHT22;10676;50.848;3.272;2022-11-21T07:55:35;4.50;99.90
21035;DHT22;10676;50.848;3.272;2022-11-21T07:58:03;4.70;99.90
21035;DHT22;10676;50.848;3.272;2022-11-21T08:00:30;4.90;99.90
21035;DHT22;10676;50.848;3.272;2022-11-21T08:02:56;5.10;99.90
21035;DHT22;10676;50.848;3.272;2022-11-21T08:05:22;5.30;99.90
21035;DHT22;10676;50.848;3.272;2022-11-21T08:07:48;5.40;99.90
21035;DHT22;10676;50.848;3.272;2022-11-21T08:10:15;5.60;99.90
21035;DHT22;10676;50.848;3.272;2022-11-21T08:12:41;5.70;99.90
21035;DHT22;10676;50.848;3.272;2022-11-21T08:15:07;6.00;99.90
21035;DHT22;10676;50.848;3.272;2022-11-21T08:17:33;6.00;99.90
21035;DHT22;10676;50.848;3.272;2022-11-21T08:19:59;6.00;99.90
21035;DHT22;10676;50.848;3.272;2022-11-21T08:22:25;6.10;99.90
21035;DHT22;10676;50.848;3.272;2022-11-21T08:24:51;6.10;99.90
21035;DHT22;10676;50.848;3.272;2022-11-21T08:27:19;6.20;99.90
21035;DHT22;10676;50.848;3.272;2022-11-21T08:29:46;6.20;99.90
21035;DHT22;10676;50.848;3.272;2022-11-21T08:32:12;6.30;99.90
21035;DHT22;10676;50.848;3.272;2022-11-21T08:34:37;6.40;99.90
21035;DHT22;10676;50.848;3.272;2022-11-21T08:37:03;6.50;99.90
21035;DHT22;10676;50.848;3.272;2022-11-21T08:39:29;6.60;99.90
21035;DHT22;10676;50.848;3.272;2022-11-21T08:41:56;6.70;99.90
21035;DHT22;10676;50.848;3.272;2022-11-21T08:44:34;6.70;99.90
21035;DHT22;10676;50.848;3.272;2022-11-21T08:47:00;6.90;99.90
21035;DHT22;10676;50.848;3.272;2022-11-21T08:49:26;6.90;99.90
21035;DHT22;10676;50.848;3.272;2022-11-21T08:51:52;7.10;99.90
21035;DHT22;10676;50.848;3.272;2022-11-21T08:54:20;7.20;99.90
21035;DHT22;10676;50.848;3.272;2022-11-21T08:56:47;7.30;99.90
21035;DHT22;10676;50.848;3.272;2022-11-21T08:59:13;7.40;99.90
21035;DHT22;10676;50.848;3.272;2022-11-21T09:01:38;7.60;99.90
21035;DHT22;10676;50.848;3.272;2022-11-21T09:04:04;7.60;99.90
21035;DHT22;10676;50.848;3.272;2022-11-21T09:06:30;7.70;99.90
21035;DHT22;10676;50.848;3.272;2022-11-21T09:08:56;7.70;99.90
21035;DHT22;10676;50.848;3.272;2022-11-21T09:11:22;7.80;99.90
21035;DHT22;10676;50.848;3.272;2022-11-21T09:13:49;7.80;99.90
21035;DHT22;10676;50.848;3.272;2022-11-21T09:16:33;7.90;99.90
21035;DHT22;10676;50.848;3.272;2022-11-21T09:19:17;8.10;99.90
21035;DHT22;10676;50.848;3.272;2022-11-21T09:21:44;8.10;99.90
21035;DHT22;10676;50.848;3.272;2022-11-21T09:24:10;8.10;99.90
21035;DHT22;10676;50.848;3.272;2022-11-21T09:26:36;8.20;99.90
21035;DHT22;10676;50.848;3.272;2022-11-21T09:29:01;8.30;99.90
21035;DHT22;10676;50.848;3.272;2022-11-21T09:31:27;8.40;99.90
21035;DHT22;10676;50.848;3.272;2022-11-21T09:33:53;8.50;99.90
21035;DHT22;10676;50.848;3.272;2022-11-21T09:36:18;8.60;99.90
21035;DHT22;10676;50.848;3.272;2022-11-21T09:38:44;8.60;99.90
21035;DHT22;10676;50.848;3.272;2022-11-21T09:47:16;8.90;99.90
21035;DHT22;10676;50.848;3.272;2022-11-21T09:49:47;9.00;99.90
21035;DHT22;10676;50.848;3.272;2022-11-21T09:52:15;9.10;99.90
21035;DHT22;10676;50.848;3.272;2022-11-21T09:54:57;9.00;99.90
21035;DHT22;10676;50.848;3.272;2022-11-21T09:57:25;9.10;99.90
21035;DHT22;10676;50.848;3.272;2022-11-21T09:59:51;9.10;99.90
21035;DHT22;10676;50.848;3.272;2022-11-21T10:02:19;9.20;99.90
21035;DHT22;10676;50.848;3.272;2022-11-21T10:04:46;9.30;99.90
21035;DHT22;10676;50.848;3.272;2022-11-21T10:07:34;9.40;99.90
21035;DHT22;10676;50.848;3.272;2022-11-21T10:13:05;9.50;99.90
21035;DHT22;10676;50.848;3.272;2022-11-21T10:21:49;9.70;99.90
21035;DHT22;10676;50.848;3.272;2022-11-21T10:24:27;9.90;99.90
21035;DHT22;10676;50.848;3.272;2022-11-21T10:29:25;10.00;99.90
21035;DHT22;10676;50.848;3.272;2022-11-21T10:32:00;10.00;99.90
21035;DHT22;10676;50.848;3.272;2022-11-21T10:34:29;10.00;99.90
21035;DHT22;10676;50.848;3.272;2022-11-21T10:37:09;10.00;99.90
21035;DHT22;10676;50.848;3.272;2022-11-21T10:39:45;9.90;99.90
21035;DHT22;10676;50.848;3.272;2022-11-21T10:42:35;9.90;99.90
21035;DHT22;10676;50.848;3.272;2022-11-21T10:45:03;9.80;99.90
21035;DHT22;10676;50.848;3.272;2022-11-21T10:47:42;9.80;99.90
21035;DHT22;10676;50.848;3.272;2022-11-21T10:53:20;9.90;99.90
21035;DHT22;10676;50.848;3.272;2022-11-21T10:56:13;9.90;99.90
21035;DHT22;10676;50.848;3.272;2022-11-21T10:58:45;9.90;99.90
21035;DHT22;10676;50.848;3.272;2022-11-21T11:07:23;10.00;99.90
21035;DHT22;10676;50.848;3.272;2022-11-21T11:09:49;10.00;99.90
21035;DHT22;10676;50.848;3.272;2022-11-21T11:12:26;10.10;99.90
21035;DHT22;10676;50.848;3.272;2022-11-21T11:15:22;10.10;99.90
21035;DHT22;10676;50.848;3.272;2022-11-21T11:18:01;10.10;99.90
21035;DHT22;10676;50.848;3.272;2022-11-21T11:22:55;10.20;99.90
21035;DHT22;10676;50.848;3.272;2022-11-21T11:25:21;10.20;99.90
21035;DHT22;10676;50.848;3.272;2022-11-21T11:27:48;10.20;99.90
21035;DHT22;10676;50.848;3.272;2022-11-21T11:30:18;10.30;99.90
21035;DHT22;10676;50.848;3.272;2022-11-21T11:32:44;10.30;99.90
21035;DHT22;10676;50.848;3.272;2022-11-21T11:37:44;10.30;99.90
21035;DHT22;10676;50.848;3.272;2022-11-21T11:40:24;10.30;99.90
21035;DHT22;10676;50.848;3.272;2022-11-21T11:49:30;10.30;99.90
21035;DHT22;10676;50.848;3.272;2022-11-21T11:52:17;10.30;99.90
21035;DHT22;10676;50.848;3.272;2022-11-21T11:54:50;10.30;99.90
21035;DHT22;10676;50.848;3.272;2022-11-21T11:57:17;10.40;99.90
21035;DHT22;10676;50.848;3.272;2022-11-21T11:59:52;10.40;99.90
21035;DHT22;10676;50.848;3.272;2022-11-21T12:02:32;10.50;99.90
21035;DHT22;10676;50.848;3.272;2022-11-21T12:05:13;10.60;99.90
21035;DHT22;10676;50.848;3.272;2022-11-21T12:07:45;10.80;99.90
21035;DHT22;10676;50.848;3.272;2022-11-21T12:10:19;10.90;99.90
21035;DHT22;10676;50.848;3.272;2022-11-21T12:12:53;10.90;99.90
21035;DHT22;10676;50.848;3.272;2022-11-21T12:15:25;10.90;99.90
21035;DHT22;10676;50.848;3.272;2022-11-21T12:23:14;11.00;99.90
21035;DHT22;10676;50.848;3.272;2022-11-21T12:31:18;11.10;99.90
21035;DHT22;10676;50.848;3.272;2022-11-21T12:33:56;11.20;99.90
21035;DHT22;10676;50.848;3.272;2022-11-21T12:36:31;11.10;99.90
21035;DHT22;10676;50.848;3.272;2022-11-21T12:41:54;11.20;99.90
21035;DHT22;10676;50.848;3.272;2022-11-21T12:44:50;11.30;99.90
21035;DHT22;10676;50.848;3.272;2022-11-21T12:50:25;11.40;99.90
21035;DHT22;10676;50.848;3.272;2022-11-21T12:56:28;11.60;99.90
21035;DHT22;10676;50.848;3.272;2022-11-21T12:58:56;11.70;99.90
21035;DHT22;10676;50.848;3.272;2022-11-21T13:04:29;11.80;99.90
21035;DHT22;10676;50.848;3.272;2022-11-21T13:06:57;11.80;99.90
21035;DHT22;10676;50.848;3.272;2022-11-21T13:09:23;11.80;99.90
21035;DHT22;10676;50.848;3.272;2022-11-21T13:12:19;11.80;99.90
21035;DHT22;10676;50.848;3.272;2022-11-21T13:15:25;11.80;99.90
21035;DHT22;10676;50.848;3.272;2022-11-21T13:18:00;11.70;99.90
21035;DHT22;10676;50.848;3.272;2022-11-21T13:20:36;11.60;99.90
21035;DHT22;10676;50.848;3.272;2022-11-21T13:23:03;11.50;99.90
21035;DHT22;10676;50.848;3.272;2022-11-21T13:30:50;11.50;99.90
21035;DHT22;10676;50.848;3.272;2022-11-21T13:36:32;11.30;99.90
21035;DHT22;10676;50.848;3.272;2022-11-21T13:47:00;11.20;99.90
21035;DHT22;10676;50.848;3.272;2022-11-21T13:52:33;11.00;99.90
21035;DHT22;10676;50.848;3.272;2022-11-21T14:00:40;10.90;99.90
21035;DHT22;10676;50.848;3.272;2022-11-21T14:03:42;10.80;99.90
21035;DHT22;10676;50.848;3.272;2022-11-21T14:09:05;10.70;99.90
21035;DHT22;10676;50.848;3.272;2022-11-21T14:11:43;10.70;99.90
21035;DHT22;10676;50.848;3.272;2022-11-21T14:17:26;10.60;99.90
21035;DHT22;10676;50.848;3.272;2022-11-21T14:19:57;10.60;99.90
21035;DHT22;10676;50.848;3.272;2022-11-21T14:22:30;10.60;99.90
21035;DHT22;10676;50.848;3.272;2022-11-21T14:24:58;10.60;99.90
21035;DHT22;10676;50.848;3.272;2022-11-21T14:27:31;10.50;99.90
21035;DHT22;10676;50.848;3.272;2022-11-21T14:29:59;10.50;99.90
21035;DHT22;10676;50.848;3.272;2022-11-21T14:32:27;10.50;99.90
21035;DHT22;10676;50.848;3.272;2022-11-21T14:35:20;10.50;99.90
21035;DHT22;10676;50.848;3.272;2022-11-21T14:37:46;10.50;99.90
21035;DHT22;10676;50.848;3.272;2022-11-21T14:40:18;10.50;99.90
21035;DHT22;10676;50.848;3.272;2022-11-21T14:42:44;10.40;99.90
21035;DHT22;10676;50.848;3.272;2022-11-21T14:45:20;10.40;99.90
21035;DHT22;10676;50.848;3.272;2022-11-21T14:47:53;10.40;99.90
21035;DHT22;10676;50.848;3.272;2022-11-21T14:50:27;10.30;99.90
21035;DHT22;10676;50.848;3.272;2022-11-21T14:52:54;10.20;99.90
21035;DHT22;10676;50.848;3.272;2022-11-21T14:55:30;10.20;99.90
21035;DHT22;10676;50.848;3.272;2022-11-21T14:57:58;10.10;99.90
21035;DHT22;10676;50.848;3.272;2022-11-21T15:00:27;10.10;99.90
21035;DHT22;10676;50.848;3.272;2022-11-21T15:02:55;10.00;99.90
21035;DHT22;10676;50.848;3.272;2022-11-21T15:05:25;9.90;99.90
21035;DHT22;10676;50.848;3.272;2022-11-21T15:07:53;9.80;99.90
21035;DHT22;10676;50.848;3.272;2022-11-21T15:10:21;9.70;99.90
21035;DHT22;10676;50.848;3.272;2022-11-21T15:18:01;9.60;99.90
21035;DHT22;10676;50.848;3.272;2022-11-21T15:20:28;9.50;99.90
21035;DHT22;10676;50.848;3.272;2022-11-21T15:22:59;9.50;99.90
21035;DHT22;10676;50.848;3.272;2022-11-21T15:25:27;9.40;99.90
21035;DHT22;10676;50.848;3.272;2022-11-21T15:30:33;9.30;99.90
21035;DHT22;10676;50.848;3.272;2022-11-21T15:35:38;9.30;99.90
21035;DHT22;10676;50.848;3.272;2022-11-21T15:43:39;9.20;99.90
21035;DHT22;10676;50.848;3.272;2022-11-21T15:46:18;9.10;99.90
21035;DHT22;10676;50.848;3.272;2022-11-21T15:48:45;9.10;99.90
21035;DHT22;10676;50.848;3.272;2022-11-21T15:51:11;9.00;99.90
21035;DHT22;10676;50.848;3.272;2022-11-21T15:53:37;9.00;99.90
21035;DHT22;10676;50.848;3.272;2022-11-21T15:56:04;9.00;99.90
21035;DHT22;10676;50.848;3.272;2022-11-21T15:58:30;9.00;99.90
21035;DHT22;10676;50.848;3.272;2022-11-21T16:00:56;9.00;99.90
21035;DHT22;10676;50.848;3.272;2022-11-21T16:03:21;9.00;99.90
21035;DHT22;10676;50.848;3.272;2022-11-21T16:05:47;8.90;99.90
21035;DHT22;10676;50.848;3.272;2022-11-21T16:08:13;8.90;99.90
21035;DHT22;10676;50.848;3.272;2022-11-21T16:10:39;8.90;99.90
21035;DHT22;10676;50.848;3.272;2022-11-21T16:13:04;8.90;99.90
21035;DHT22;10676;50.848;3.272;2022-11-21T16:15:30;8.90;99.90
21035;DHT22;10676;50.848;3.272;2022-11-21T16:17:56;8.90;99.90
21035;DHT22;10676;50.848;3.272;2022-11-21T16:20:21;8.80;99.90
21035;DHT22;10676;50.848;3.272;2022-11-21T16:22:47;8.80;99.90
21035;DHT22;10676;50.848;3.272;2022-11-21T16:25:13;8.80;99.90
21035;DHT22;10676;50.848;3.272;2022-11-21T16:27:38;8.80;99.90
21035;DHT22;10676;50.848;3.272;2022-11-21T16:30:04;8.80;99.90
21035;DHT22;10676;50.848;3.272;2022-11-21T16:32:30;8.80;99.90
21035;DHT22;10676;50.848;3.272;2022-11-21T16:34:56;8.70;99.90
21035;DHT22;10676;50.848;3.272;2022-11-21T16:37:23;8.70;99.90
21035;DHT22;10676;50.848;3.272;2022-11-21T16:39:48;8.70;99.90
21035;DHT22;10676;50.848;3.272;2022-11-21T16:42:18;8.70;99.90
21035;DHT22;10676;50.848;3.272;2022-11-21T16:44:44;8.70;99.90
21035;DHT22;10676;50.848;3.272;2022-11-21T16:47:12;8.70;99.90
21035;DHT22;10676;50.848;3.272;2022-11-21T16:49:37;8.60;99.90
21035;DHT22;10676;50.848;3.272;2022-11-21T16:52:11;8.60;99.90
21035;DHT22;10676;50.848;3.272;2022-11-21T16:54:37;8.60;99.90
21035;DHT22;10676;50.848;3.272;2022-11-21T16:57:03;8.60;99.90
21035;DHT22;10676;50.848;3.272;2022-11-21T16:59:30;8.60;99.90
21035;DHT22;10676;50.848;3.272;2022-11-21T17:01:55;8.50;99.90
21035;DHT22;10676;50.848;3.272;2022-11-21T17:04:21;8.50;99.90
21035;DHT22;10676;50.848;3.272;2022-11-21T17:06:47;8.60;99.90
21035;DHT22;10676;50.848;3.272;2022-11-21T17:09:16;8.50;99.90
21035;DHT22;10676;50.848;3.272;2022-11-21T17:11:42;8.50;99.90
21035;DHT22;10676;50.848;3.272;2022-11-21T17:14:10;8.50;99.90
21035;DHT22;10676;50.848;3.272;2022-11-21T17:16:37;8.50;99.90
21035;DHT22;10676;50.848;3.272;2022-11-21T17:19:04;8.50;99.90
21035;DHT22;10676;50.848;3.272;2022-11-21T17:21:31;8.50;99.90
21035;DHT22;10676;50.848;3.272;2022-11-21T17:23:57;8.50;99.90
21035;DHT22;10676;50.848;3.272;2022-11-21T17:26:24;8.50;99.90
21035;DHT22;10676;50.848;3.272;2022-11-21T17:28:52;8.50;99.90
21035;DHT22;10676;50.848;3.272;2022-11-21T17:31:18;8.50;99.90
21035;DHT22;10676;50.848;3.272;2022-11-21T17:33:44;8.50;99.90
21035;DHT22;10676;50.848;3.272;2022-11-21T17:36:14;8.50;99.90
21035;DHT22;10676;50.848;3.272;2022-11-21T17:38:41;8.50;99.90
21035;DHT22;10676;50.848;3.272;2022-11-21T17:41:09;8.50;99.90
21035;DHT22;10676;50.848;3.272;2022-11-21T17:43:35;8.50;99.90
21035;DHT22;10676;50.848;3.272;2022-11-21T17:46:06;8.50;99.90